createdAt,value
2018-08-18T00:02:07.781Z,2.33
2018-08-18T00:05:14.398Z,2.63
2018-08-18T00:08:20.130Z,2.50
2018-08-18T00:11:25.546Z,2.33
2018-08-18T00:14:31.890Z,2.40
2018-08-18T00:17:38.365Z,2.40
2018-08-18T00:20:43.817Z,2.50
2018-08-18T00:24:08.191Z,2.70
2018-08-18T00:27:13.942Z,2.47
2018-08-18T00:30:24.856Z,2.77
2018-08-18T00:33:30.465Z,3.07
2018-08-18T00:36:36.193Z,2.70
2018-08-18T00:39:41.569Z,2.70
2018-08-18T00:42:46.951Z,2.70
2018-08-18T00:45:52.350Z,2.90
2018-08-18T00:48:57.946Z,3.20
2018-08-18T00:52:03.604Z,2.63
2018-08-18T00:55:09.366Z,2.67
2018-08-18T00:58:22.033Z,3.30
2018-08-18T01:01:27.542Z,3.30
2018-08-18T01:04:33.688Z,3.03
2018-08-18T01:07:39.090Z,2.90
2018-08-18T01:10:44.867Z,2.73
2018-08-18T01:13:50.545Z,3.07
2018-08-18T01:16:56.066Z,2.47
2018-08-18T01:20:01.770Z,3.17
2018-08-18T01:23:07.157Z,2.70
2018-08-18T01:26:12.869Z,2.83
2018-08-18T01:29:18.777Z,2.90
2018-08-18T01:32:24.401Z,2.90
2018-08-18T01:35:29.774Z,2.43
2018-08-18T01:38:36.894Z,3.30
2018-08-18T01:41:42.541Z,3.00
2018-08-18T01:44:47.885Z,3.33
2018-08-18T01:47:53.245Z,3.40
2018-08-18T01:51:14.969Z,3.00
2018-08-18T01:54:20.369Z,3.03
2018-08-18T01:57:25.747Z,3.67
2018-08-18T02:00:31.493Z,3.87
2018-08-18T02:03:36.873Z,3.73
2018-08-18T02:06:42.589Z,3.97
2018-08-18T02:09:48.409Z,4.37
2018-08-18T02:13:05.082Z,4.10
2018-08-18T02:16:10.527Z,4.37
2018-08-18T02:19:17.908Z,4.67
2018-08-18T02:22:23.913Z,3.93
2018-08-18T02:25:29.260Z,4.73
2018-08-18T02:28:34.624Z,4.60
2018-08-18T02:31:40.022Z,4.77
2018-08-18T02:34:45.422Z,4.37
2018-08-18T02:37:51.167Z,4.77
2018-08-18T02:40:56.570Z,4.50
2018-08-18T02:44:02.263Z,4.73
2018-08-18T02:47:07.650Z,5.13
2018-08-18T02:50:14.480Z,4.83
2018-08-18T02:53:28.286Z,4.63
2018-08-18T02:56:42.752Z,4.63
2018-08-18T02:59:48.222Z,5.03
2018-08-18T03:02:53.581Z,4.37
2018-08-18T03:06:02.995Z,4.00
2018-08-18T03:09:10.394Z,4.70
2018-08-18T03:12:15.778Z,4.20
2018-08-18T03:16:06.850Z,4.17
2018-08-18T03:19:14.981Z,4.10
2018-08-18T03:22:20.694Z,4.27
2018-08-18T03:25:41.743Z,4.00
2018-08-18T03:28:52.071Z,4.17
2018-08-18T03:31:57.765Z,4.33
2018-08-18T03:35:03.138Z,4.30
2018-08-18T03:38:08.506Z,4.23
2018-08-18T03:41:13.897Z,4.37
2018-08-18T03:44:19.708Z,4.80
2018-08-18T03:47:25.463Z,4.33
2018-08-18T03:50:48.877Z,4.47
2018-08-18T03:53:54.238Z,4.57
2018-08-18T03:56:59.581Z,4.20
2018-08-18T04:00:05.426Z,4.10
2018-08-18T04:03:10.937Z,4.13
2018-08-18T04:06:16.326Z,4.40
2018-08-18T04:09:23.929Z,4.10
2018-08-18T04:12:29.398Z,3.90
2018-08-18T04:15:34.782Z,4.43
2018-08-18T04:18:40.194Z,4.47
2018-08-18T04:21:46.378Z,4.00
2018-08-18T04:24:51.788Z,4.53
2018-08-18T04:27:57.149Z,4.20
2018-08-18T04:31:02.607Z,4.80
2018-08-18T04:34:08.676Z,4.40
2018-08-18T04:37:14.074Z,3.87
2018-08-18T04:40:20.590Z,4.37
2018-08-18T04:43:25.990Z,4.07
2018-08-18T04:46:31.361Z,4.13
2018-08-18T04:49:36.996Z,4.77
2018-08-18T04:52:43.105Z,4.40
2018-08-18T04:55:48.542Z,4.33
2018-08-18T04:58:54.490Z,4.43
2018-08-18T05:01:59.910Z,5.40
2018-08-18T05:05:05.304Z,4.73
2018-08-18T05:08:10.674Z,4.90
2018-08-18T05:11:16.069Z,5.23
2018-08-18T05:14:21.425Z,4.77
2018-08-18T05:17:26.765Z,5.63
2018-08-18T05:20:32.237Z,4.67
2018-08-18T05:23:37.569Z,5.07
2018-08-18T05:26:42.956Z,5.90
2018-08-18T05:29:48.750Z,5.77
2018-08-18T05:32:54.846Z,5.00
2018-08-18T05:36:00.383Z,5.23
2018-08-18T05:39:08.590Z,4.70
2018-08-18T05:42:13.958Z,5.97
2018-08-18T05:45:28.453Z,6.90
2018-08-18T05:48:34.057Z,6.13
2018-08-18T05:51:43.498Z,6.30
2018-08-18T05:54:48.940Z,5.20
2018-08-18T05:57:54.805Z,6.70
2018-08-18T06:01:07.241Z,5.70
2018-08-18T06:04:15.025Z,6.53
2018-08-18T06:07:20.402Z,5.83
2018-08-18T06:10:25.813Z,5.07
2018-08-18T06:13:31.199Z,5.03
2018-08-18T06:16:37.058Z,5.30
2018-08-18T06:19:42.532Z,5.07
2018-08-18T06:22:47.944Z,6.17
2018-08-18T06:25:53.331Z,5.27
2018-08-18T06:28:59.018Z,5.47
2018-08-18T06:32:07.742Z,4.70
2018-08-18T06:35:13.948Z,4.87
2018-08-18T06:38:19.402Z,4.33
2018-08-18T06:41:24.890Z,4.43
2018-08-18T06:44:30.465Z,3.77
2018-08-18T06:47:35.841Z,3.50
2018-08-18T06:50:42.274Z,3.20
2018-08-18T06:53:48.728Z,3.43
2018-08-18T06:56:54.109Z,3.27
2018-08-18T07:00:04.375Z,3.00
2018-08-18T07:03:26.739Z,2.70
2018-08-18T07:06:32.108Z,2.93
2018-08-18T07:09:37.574Z,2.90
2018-08-18T07:12:44.901Z,2.23
2018-08-18T07:15:50.293Z,2.97
2018-08-18T07:18:55.664Z,3.57
2018-08-18T07:22:01.038Z,2.90
2018-08-18T07:25:06.838Z,2.30
2018-08-18T07:28:13.256Z,2.10
2018-08-18T07:31:18.801Z,2.20
2018-08-18T07:34:24.198Z,2.50
2018-08-18T07:37:29.608Z,2.30
2018-08-18T07:40:41.421Z,2.43
2018-08-18T07:43:46.786Z,2.10
2018-08-18T07:46:52.180Z,2.63
2018-08-18T07:49:57.642Z,2.03
2018-08-18T07:53:03.608Z,2.30
2018-08-18T07:56:09.526Z,2.80
2018-08-18T07:59:15.034Z,2.50
2018-08-18T08:02:20.405Z,2.40
2018-08-18T08:05:25.789Z,3.13
2018-08-18T08:08:36.637Z,3.03
2018-08-18T08:11:42.302Z,2.60
2018-08-18T08:14:48.398Z,2.60
2018-08-18T08:17:53.853Z,2.70
2018-08-18T08:20:59.298Z,2.17
2018-08-18T08:24:05.648Z,2.63
2018-08-18T08:27:11.197Z,2.80
2018-08-18T08:30:18.102Z,2.37
2018-08-18T08:33:36.917Z,2.80
2018-08-18T08:36:43.220Z,2.10
2018-08-18T08:39:49.154Z,2.27
2018-08-18T08:42:55.082Z,2.40
2018-08-18T08:46:00.891Z,2.80
2018-08-18T08:49:07.060Z,2.03
2018-08-18T08:52:12.708Z,2.43
2018-08-18T08:55:19.481Z,1.90
2018-08-18T08:58:24.881Z,2.50
2018-08-18T09:01:30.298Z,1.90
2018-08-18T09:04:35.965Z,2.40
2018-08-18T09:07:41.736Z,2.23
2018-08-18T09:10:47.157Z,2.27
2018-08-18T09:14:04.545Z,3.27
2018-08-18T09:17:10.259Z,2.80
2018-08-18T09:20:18.827Z,3.30
2018-08-18T09:23:24.283Z,3.13
2018-08-18T09:26:31.333Z,3.77
2018-08-18T09:29:47.982Z,3.00
2018-08-18T09:32:58.230Z,2.80
2018-08-18T09:36:06.454Z,3.30
2018-08-18T09:39:25.882Z,3.20
2018-08-18T09:42:32.237Z,3.20
2018-08-18T09:45:38.014Z,3.23
2018-08-18T09:48:43.464Z,3.50
2018-08-18T09:51:48.837Z,3.37
2018-08-18T09:54:54.229Z,3.20
2018-08-18T09:57:59.946Z,2.67
2018-08-18T10:01:05.420Z,2.97
2018-08-18T10:04:10.850Z,3.03
2018-08-18T10:07:16.217Z,2.17
2018-08-18T10:10:22.355Z,2.17
2018-08-18T10:13:27.769Z,2.40
2018-08-18T10:16:33.114Z,2.37
2018-08-18T10:19:38.633Z,1.97
2018-08-18T10:22:44.007Z,1.67
2018-08-18T10:25:49.425Z,1.80
2018-08-18T10:29:13.208Z,1.53
2018-08-18T10:32:18.586Z,1.40
2018-08-18T10:35:29.325Z,1.30
2018-08-18T10:38:34.697Z,1.20
2018-08-18T10:41:57.152Z,1.37
2018-08-18T10:45:03.822Z,1.33
2018-08-18T10:48:09.281Z,1.40
2018-08-18T10:51:32.534Z,1.50
2018-08-18T10:54:38.126Z,1.53
2018-08-18T10:58:00.378Z,1.53
2018-08-18T11:01:06.231Z,1.87
2018-08-18T11:04:11.595Z,2.10
2018-08-18T11:07:16.989Z,1.90
2018-08-18T11:10:24.141Z,1.50
2018-08-18T11:13:29.525Z,2.00
2018-08-18T11:16:34.955Z,1.70
2018-08-18T11:19:40.410Z,1.87
2018-08-18T11:23:14.986Z,1.50
2018-08-18T11:26:20.401Z,1.63
2018-08-18T11:29:25.806Z,1.80
2018-08-18T11:32:31.141Z,1.90
2018-08-18T11:35:36.842Z,1.67
2018-08-18T11:38:42.202Z,1.70
2018-08-18T11:41:47.799Z,1.87
2018-08-18T11:44:53.162Z,1.70
2018-08-18T11:48:07.585Z,1.53
2018-08-18T11:51:13.096Z,1.50
2018-08-18T11:54:18.465Z,1.50
2018-08-18T11:57:23.818Z,1.40
2018-08-18T12:00:32.697Z,1.17
2018-08-18T12:03:38.349Z,1.43
2018-08-18T12:06:48.869Z,1.50
2018-08-18T12:09:54.565Z,1.20
2018-08-18T12:12:59.958Z,1.57
2018-08-18T12:16:16.158Z,1.40
2018-08-18T12:19:21.633Z,1.40
2018-08-18T12:22:27.050Z,1.47
2018-08-18T12:25:32.446Z,1.30
2018-08-18T12:28:43.330Z,1.47
2018-08-18T12:31:49.126Z,1.43
2018-08-18T12:34:56.969Z,1.50
2018-08-18T12:38:02.410Z,1.40
2018-08-18T12:41:07.946Z,1.67
2018-08-18T12:44:13.794Z,1.67
2018-08-18T12:47:19.501Z,1.60
2018-08-18T12:50:24.940Z,1.30
2018-08-18T12:53:34.344Z,1.40
2018-08-18T12:56:39.749Z,1.20
2018-08-18T12:59:45.162Z,1.33
2018-08-18T13:02:54.673Z,1.13
2018-08-18T13:06:00.102Z,1.80
2018-08-18T13:09:07.193Z,1.10
2018-08-18T13:12:12.558Z,1.33
2018-08-18T13:15:18.445Z,1.13
2018-08-18T13:18:24.660Z,1.30
2018-08-18T13:21:30.222Z,1.40
2018-08-18T13:24:35.561Z,1.30
2018-08-18T13:27:58.375Z,1.50
2018-08-18T13:31:03.862Z,1.20
2018-08-18T13:34:11.218Z,1.30
2018-08-18T13:37:16.707Z,1.53
2018-08-18T13:40:26.612Z,1.20
2018-08-18T13:43:45.237Z,1.20
2018-08-18T13:46:52.013Z,1.20
2018-08-18T13:50:02.594Z,1.20
2018-08-18T13:53:08.227Z,1.20
2018-08-18T13:56:13.857Z,1.30
2018-08-18T13:59:44.012Z,1.47
2018-08-18T14:02:49.389Z,1.60
2018-08-18T14:05:55.951Z,1.07
2018-08-18T14:09:03.045Z,1.07
2018-08-18T14:12:15.713Z,1.63
2018-08-18T14:15:23.023Z,1.60
2018-08-18T14:18:30.622Z,1.53
2018-08-18T14:21:36.837Z,1.27
2018-08-18T14:24:42.621Z,1.97
2018-08-18T14:27:52.070Z,1.33
2018-08-18T14:30:57.526Z,1.30
2018-08-18T14:34:03.610Z,1.70
2018-08-18T14:37:13.310Z,1.50
2018-08-18T14:40:19.382Z,1.20
2018-08-18T14:43:29.644Z,1.27
2018-08-18T14:46:35.504Z,1.53
2018-08-18T14:49:40.966Z,1.53
2018-08-18T14:52:46.605Z,1.20
2018-08-18T14:55:51.981Z,1.67
2018-08-18T14:58:57.354Z,1.40
2018-08-18T15:02:04.583Z,1.50
2018-08-18T15:05:10.320Z,1.40
2018-08-18T15:08:15.701Z,1.30
2018-08-18T15:11:21.074Z,1.20
2018-08-18T15:14:27.122Z,1.23
2018-08-18T15:17:32.477Z,1.37
2018-08-18T15:20:38.814Z,1.80
2018-08-18T15:23:44.208Z,1.30
2018-08-18T15:26:49.709Z,1.40
2018-08-18T15:29:55.145Z,1.50
2018-08-18T15:33:00.834Z,1.80
2018-08-18T15:36:17.413Z,1.30
2018-08-18T15:39:26.427Z,1.70
2018-08-18T15:42:31.797Z,1.67
2018-08-18T15:46:01.715Z,1.57
2018-08-18T15:49:07.124Z,1.50
2018-08-18T15:52:13.662Z,1.60
2018-08-18T15:55:19.321Z,1.53
2018-08-18T15:58:24.732Z,1.70
2018-08-18T16:01:31.422Z,1.60
2018-08-18T16:04:36.823Z,1.47
2018-08-18T16:07:42.173Z,1.87
2018-08-18T16:10:47.558Z,1.43
2018-08-18T16:13:53.032Z,1.63
2018-08-18T16:17:02.414Z,1.40
2018-08-18T16:20:11.909Z,1.60
2018-08-18T16:23:22.952Z,1.73
2018-08-18T16:26:28.359Z,1.40
2018-08-18T16:29:33.965Z,1.17
2018-08-18T16:32:39.360Z,1.43
2018-08-18T16:35:45.807Z,1.43
2018-08-18T16:38:51.228Z,1.57
2018-08-18T16:41:56.578Z,1.90
2018-08-18T16:45:01.997Z,1.50
2018-08-18T16:48:09.193Z,1.50
2018-08-18T16:51:14.963Z,1.50
2018-08-18T16:54:23.002Z,1.70
2018-08-18T16:57:28.350Z,2.10
2018-08-18T17:00:34.118Z,1.27
2018-08-18T17:03:39.585Z,2.20
2018-08-18T17:06:44.920Z,2.17
2018-08-18T17:09:50.285Z,1.77
2018-08-18T17:12:59.825Z,1.70
2018-08-18T17:16:06.549Z,1.70
2018-08-18T17:19:11.957Z,2.00
2018-08-18T17:22:17.458Z,2.00
2018-08-18T17:25:26.137Z,1.70
2018-08-18T17:28:32.213Z,1.90
2018-08-18T17:31:37.585Z,1.70
2018-08-18T17:34:42.973Z,1.93
2018-08-18T17:37:48.321Z,1.70
2018-08-18T17:40:53.693Z,1.50
2018-08-18T17:43:59.062Z,1.50
2018-08-18T17:47:08.517Z,1.33
2018-08-18T17:50:13.908Z,1.40
2018-08-18T17:53:19.285Z,1.20
2018-08-18T17:56:24.710Z,1.20
2018-08-18T17:59:30.534Z,1.53
2018-08-18T18:02:42.109Z,1.20
2018-08-18T18:05:47.513Z,1.63
2018-08-18T18:08:53.208Z,1.27
2018-08-18T18:12:00.166Z,1.50
2018-08-18T18:15:33.400Z,1.47
2018-08-18T18:18:43.994Z,1.90
2018-08-18T18:21:49.377Z,1.80
2018-08-18T18:24:54.738Z,1.40
2018-08-18T18:28:01.843Z,1.40
2018-08-18T18:31:07.253Z,1.40
2018-08-18T18:34:13.390Z,1.60
2018-08-18T18:37:18.746Z,2.00
2018-08-18T18:40:24.131Z,1.80
2018-08-18T18:43:29.499Z,1.67
2018-08-18T18:46:34.865Z,1.90
2018-08-18T18:49:40.361Z,1.67
2018-08-18T18:52:46.445Z,1.97
2018-08-18T18:55:54.214Z,1.57
2018-08-18T18:58:59.582Z,1.80
2018-08-18T19:02:05.030Z,1.60
2018-08-18T19:05:19.406Z,1.70
2018-08-18T19:08:24.749Z,2.10
2018-08-18T19:11:30.277Z,2.57
2018-08-18T19:14:35.635Z,1.90
2018-08-18T19:17:41.022Z,2.00
2018-08-18T19:20:46.418Z,2.00
2018-08-18T19:23:51.757Z,2.60
2018-08-18T19:27:00.409Z,2.33
2018-08-18T19:30:06.569Z,3.10
2018-08-18T19:33:13.582Z,2.20
2018-08-18T19:36:18.942Z,2.03
2018-08-18T19:39:28.006Z,1.93
2018-08-18T19:42:33.410Z,2.17
2018-08-18T19:45:38.797Z,2.20
2018-08-18T19:48:44.186Z,2.20
2018-08-18T19:51:49.777Z,2.33
2018-08-18T19:54:55.199Z,2.17
2018-08-18T19:58:00.828Z,2.17
2018-08-18T20:01:07.338Z,2.37
2018-08-18T20:04:14.712Z,2.50
2018-08-18T20:07:20.349Z,2.23
2018-08-18T20:10:26.130Z,2.60
2018-08-18T20:13:32.718Z,2.10
2018-08-18T20:16:38.078Z,2.60
2018-08-18T20:19:43.557Z,2.47
2018-08-18T20:22:49.002Z,3.00
2018-08-18T20:25:55.138Z,2.70
2018-08-18T20:29:00.858Z,3.07
2018-08-18T20:32:06.309Z,2.80
2018-08-18T20:35:11.762Z,2.50
2018-08-18T20:38:17.131Z,2.70
2018-08-18T20:41:22.533Z,2.67
2018-08-18T20:44:29.753Z,2.90
2018-08-18T20:47:35.141Z,2.93
2018-08-18T20:50:40.591Z,2.70
2018-08-18T20:53:46.083Z,2.83
2018-08-18T20:56:51.694Z,2.63
2018-08-18T20:59:57.169Z,3.10
2018-08-18T21:03:02.623Z,2.60
2018-08-18T21:06:08.018Z,2.70
2018-08-18T21:09:28.526Z,2.43
2018-08-18T21:12:38.990Z,2.50
2018-08-18T21:15:44.669Z,3.10
2018-08-18T21:18:50.258Z,2.60
2018-08-18T21:21:57.052Z,2.73
2018-08-18T21:25:02.469Z,2.90
2018-08-18T21:28:09.894Z,2.90
2018-08-18T21:31:19.346Z,3.60
2018-08-18T21:34:24.722Z,3.10
2018-08-18T21:37:30.069Z,3.30
2018-08-18T21:40:36.449Z,4.40
2018-08-18T21:43:41.902Z,4.03
2018-08-18T21:46:47.590Z,4.07
2018-08-18T21:49:53.105Z,3.87
2018-08-18T21:52:58.482Z,3.43
2018-08-18T21:56:03.841Z,4.13
2018-08-18T21:59:11.600Z,3.80
2018-08-18T22:02:37.422Z,3.77
2018-08-18T22:05:43.161Z,3.60
2018-08-18T22:08:48.536Z,4.07
2018-08-18T22:11:53.994Z,4.03
2018-08-18T22:15:00.398Z,4.13
2018-08-18T22:18:07.935Z,3.90
2018-08-18T22:21:17.161Z,4.03
2018-08-18T22:24:22.754Z,4.10
2018-08-18T22:27:28.125Z,3.83
2018-08-18T22:30:33.557Z,4.40
2018-08-18T22:33:41.566Z,4.00
2018-08-18T22:36:46.922Z,4.53
2018-08-18T22:39:52.457Z,3.93
2018-08-18T22:42:57.818Z,4.17
2018-08-18T22:46:03.857Z,4.30
2018-08-18T22:49:09.327Z,4.17
2018-08-18T22:52:14.736Z,4.20
2018-08-18T22:55:20.310Z,4.07
2018-08-18T22:58:25.654Z,4.00
2018-08-18T23:01:31.298Z,4.57
2018-08-18T23:04:38.193Z,4.50
2018-08-18T23:07:43.531Z,4.80
2018-08-18T23:10:49.062Z,4.73
2018-08-18T23:13:54.397Z,4.60
2018-08-18T23:16:59.986Z,3.90
2018-08-18T23:20:05.869Z,4.17
2018-08-18T23:23:11.213Z,5.00
2018-08-18T23:26:16.578Z,4.40
2018-08-18T23:29:22.605Z,4.47
2018-08-18T23:32:27.938Z,4.53
2018-08-18T23:35:33.329Z,4.70
2018-08-18T23:38:44.482Z,4.30
2018-08-18T23:41:57.777Z,4.83
2018-08-18T23:45:03.142Z,4.47
2018-08-18T23:48:14.126Z,5.00
2018-08-18T23:51:26.574Z,5.10
2018-08-18T23:54:32.650Z,4.40
2018-08-18T23:57:38.018Z,5.23
